createdAt,value
2022-12-11T00:00:06.411Z,2.09
2022-12-11T00:02:33.032Z,1.72
2022-12-11T00:04:59.664Z,1.76
2022-12-11T00:07:26.308Z,1.85
2022-12-11T00:09:52.917Z,1.97
2022-12-11T00:12:19.546Z,2.25
2022-12-11T00:14:46.127Z,2.36
2022-12-11T00:17:12.753Z,2.28
2022-12-11T00:19:39.377Z,2.21
2022-12-11T00:22:06.042Z,2.24
2022-12-11T00:24:32.712Z,2.28
2022-12-11T00:26:59.501Z,2.39
2022-12-11T00:29:26.107Z,2.50
2022-12-11T00:31:52.735Z,2.48
2022-12-11T00:34:19.341Z,2.59
2022-12-11T00:36:45.986Z,2.68
2022-12-11T00:39:12.778Z,2.53
2022-12-11T00:41:39.369Z,2.59
2022-12-11T00:44:06.140Z,2.31
2022-12-11T00:46:32.832Z,2.14
2022-12-11T00:48:59.451Z,2.07
2022-12-11T00:51:26.249Z,2.00
2022-12-11T00:53:52.895Z,1.95
2022-12-11T00:56:22.568Z,1.79
2022-12-11T00:58:49.538Z,1.68
2022-12-11T01:01:22.492Z,1.70
2022-12-11T01:03:49.396Z,1.52
2022-12-11T01:06:18.852Z,1.22
2022-12-11T01:08:46.257Z,1.30
2022-12-11T01:11:15.569Z,1.39
2022-12-11T01:13:43.295Z,1.16
2022-12-11T01:16:14.052Z,1.19
2022-12-11T01:18:41.120Z,1.01
2022-12-11T01:21:13.445Z,1.08
2022-12-11T01:23:40.633Z,1.04
2022-12-11T01:26:15.016Z,1.03
2022-12-11T01:28:42.349Z,0.93
2022-12-11T01:31:13.844Z,0.88
2022-12-11T01:33:41.421Z,0.88
2022-12-11T01:36:19.738Z,0.85
2022-12-11T01:38:48.056Z,0.85
2022-12-11T01:41:15.394Z,0.85
2022-12-11T01:44:03.615Z,0.44
2022-12-11T01:46:32.448Z,0.54
2022-12-11T01:49:00.909Z,0.40
2022-12-11T01:51:31.438Z,0.31
2022-12-11T01:54:03.667Z,0.34
2022-12-11T01:56:32.966Z,0.37
2022-12-11T01:59:07.137Z,0.40
2022-12-11T02:01:39.775Z,0.31
2022-12-11T02:04:08.698Z,0.32
2022-12-11T02:06:44.814Z,0.34
2022-12-11T02:09:14.890Z,0.18
2022-12-11T02:11:53.307Z,0.24
2022-12-11T02:14:34.981Z,0.27
2022-12-11T02:17:10.268Z,0.07
2022-12-11T02:20:10.713Z,0.22
2022-12-11T02:22:37.477Z,0.24
2022-12-11T02:25:19.074Z,0.47
2022-12-11T02:27:56.734Z,0.41
2022-12-11T02:30:24.838Z,0.64
2022-12-11T02:32:55.772Z,0.50
2022-12-11T02:35:28.374Z,0.57
2022-12-11T02:37:59.685Z,0.80
2022-12-11T02:40:30.143Z,0.74
2022-12-11T02:43:00.110Z,0.67
2022-12-11T02:45:29.014Z,0.82
2022-12-11T02:47:58.888Z,0.86
2022-12-11T02:50:27.067Z,0.64
2022-12-11T02:52:56.940Z,0.72
2022-12-11T02:55:27.264Z,0.79
2022-12-11T02:58:03.893Z,0.73
2022-12-11T03:00:30.723Z,0.81
2022-12-11T03:02:58.041Z,0.84
2022-12-11T03:05:24.811Z,0.77
2022-12-11T03:07:51.486Z,0.57
2022-12-11T03:10:19.921Z,0.32
2022-12-11T03:12:53.377Z,0.31
2022-12-11T03:15:24.044Z,0.16
2022-12-11T03:17:59.682Z,0.07
2022-12-11T03:20:38.948Z,0.02
2022-12-11T03:23:28.546Z,0.08
2022-12-11T03:26:10.413Z,0.06
2022-12-11T03:28:45.638Z,0.10
2022-12-11T03:31:37.781Z,0.10
2022-12-11T03:34:13.598Z,0.00
2022-12-11T03:36:40.962Z,0.15
2022-12-11T03:39:12.685Z,0.26
2022-12-11T03:41:41.160Z,0.16
2022-12-11T03:44:09.194Z,0.17
2022-12-11T03:46:39.502Z,0.04
2022-12-11T03:49:09.532Z,0.07
2022-12-11T03:51:36.817Z,0.10
2022-12-11T03:54:03.691Z,0.11
2022-12-11T03:56:34.293Z,0.12
2022-12-11T03:59:00.862Z,0.05
2022-12-11T04:01:27.647Z,0.02
2022-12-11T04:03:54.332Z,-0.03
2022-12-11T04:06:20.981Z,0.17
2022-12-11T04:08:47.598Z,0.11
2022-12-11T04:11:32.713Z,0.10
2022-12-11T04:14:25.214Z,0.15
2022-12-11T04:16:51.894Z,0.10
2022-12-11T04:19:37.958Z,-0.10
2022-12-11T04:22:23.387Z,-0.14
2022-12-11T04:24:50.379Z,-0.01
2022-12-11T04:27:38.501Z,-0.04
2022-12-11T04:30:09.545Z,-0.02
2022-12-11T04:32:36.154Z,0.09
2022-12-11T04:35:02.984Z,0.25
2022-12-11T04:37:30.121Z,0.11
2022-12-11T04:39:56.757Z,0.08
2022-12-11T04:42:23.410Z,-0.03
2022-12-11T04:44:50.002Z,0.24
2022-12-11T04:47:16.954Z,0.10
2022-12-11T04:49:43.565Z,0.18
2022-12-11T04:52:10.202Z,0.16
2022-12-11T04:54:36.792Z,-0.01
2022-12-11T04:57:03.439Z,0.00
2022-12-11T04:59:31.467Z,0.00
2022-12-11T05:01:58.151Z,0.00
2022-12-11T05:04:24.766Z,-0.28
2022-12-11T05:06:51.786Z,-0.27
2022-12-11T05:09:18.379Z,-0.39
2022-12-11T05:11:44.938Z,-0.14
2022-12-11T05:14:11.619Z,-0.20
2022-12-11T05:16:38.328Z,-0.13
2022-12-11T05:19:04.969Z,-0.31
2022-12-11T05:21:35.056Z,-0.21
2022-12-11T05:24:02.683Z,-0.33
2022-12-11T05:26:29.426Z,-0.38
2022-12-11T05:28:56.049Z,-0.14
2022-12-11T05:31:25.637Z,-0.31
2022-12-11T05:33:53.505Z,-0.10
2022-12-11T05:36:26.121Z,-0.12
2022-12-11T05:38:53.177Z,-0.01
2022-12-11T05:41:24.578Z,-0.08
2022-12-11T05:43:52.067Z,0.11
2022-12-11T05:46:26.578Z,0.04
2022-12-11T05:48:56.522Z,0.09
2022-12-11T05:51:23.827Z,0.23
2022-12-11T05:53:51.769Z,-0.19
2022-12-11T05:56:26.320Z,-0.03
2022-12-11T05:58:54.161Z,-0.14
2022-12-11T06:01:25.110Z,-0.11
2022-12-11T06:03:52.108Z,-0.22
2022-12-11T06:06:18.788Z,-0.01
2022-12-11T06:08:45.420Z,-0.17
2022-12-11T06:11:18.371Z,0.01
2022-12-11T06:13:48.350Z,-0.28
2022-12-11T06:16:15.367Z,-0.39
2022-12-11T06:18:44.866Z,-0.36
2022-12-11T06:21:24.813Z,-0.22
2022-12-11T06:23:54.109Z,-0.09
2022-12-11T06:26:21.518Z,-0.05
2022-12-11T06:28:48.546Z,-0.10
2022-12-11T06:31:15.792Z,-0.28
2022-12-11T06:33:43.343Z,-0.34
2022-12-11T06:36:17.776Z,-0.28
2022-12-11T06:38:45.085Z,-0.38
2022-12-11T06:41:12.750Z,-0.45
2022-12-11T06:43:40.573Z,-0.28
2022-12-11T06:46:10.367Z,-0.21
2022-12-11T06:48:37.431Z,-0.23
2022-12-11T06:51:12.622Z,-0.38
2022-12-11T06:53:39.472Z,-0.30
2022-12-11T06:56:12.372Z,-0.47
2022-12-11T06:58:40.250Z,-0.48
2022-12-11T07:01:24.805Z,-0.33
2022-12-11T07:03:55.925Z,-0.27
2022-12-11T07:06:23.143Z,-0.41
2022-12-11T07:08:50.019Z,-0.52
2022-12-11T07:11:17.861Z,-0.36
2022-12-11T07:13:44.857Z,-0.17
2022-12-11T07:16:13.822Z,-0.51
2022-12-11T07:18:43.470Z,-0.58
2022-12-11T07:21:13.219Z,-0.57
2022-12-11T07:23:40.590Z,-0.46
2022-12-11T07:26:10.877Z,-0.49
2022-12-11T07:28:37.638Z,-0.53
2022-12-11T07:31:14.871Z,-0.55
2022-12-11T07:33:43.004Z,-0.64
2022-12-11T07:36:11.728Z,-0.63
2022-12-11T07:38:38.830Z,-0.71
2022-12-11T07:41:08.343Z,-0.70
2022-12-11T07:43:36.078Z,-0.70
2022-12-11T07:46:08.549Z,-0.54
2022-12-11T07:48:36.694Z,-0.63
2022-12-11T07:51:15.140Z,-0.72
2022-12-11T07:53:43.031Z,-0.49
2022-12-11T07:56:09.649Z,-0.33
2022-12-11T07:58:36.976Z,-0.52
2022-12-11T08:01:03.610Z,-0.63
2022-12-11T08:03:30.265Z,-0.53
2022-12-11T08:05:56.910Z,-0.25
2022-12-11T08:08:23.566Z,-0.26
2022-12-11T08:10:50.182Z,-0.25
2022-12-11T08:13:16.753Z,-0.25
2022-12-11T08:15:43.432Z,-0.23
2022-12-11T08:18:10.385Z,-0.38
2022-12-11T08:20:39.354Z,-0.55
2022-12-11T08:23:06.047Z,-0.34
2022-12-11T08:25:32.927Z,-0.45
2022-12-11T08:27:59.503Z,-0.50
2022-12-11T08:30:26.136Z,-0.66
2022-12-11T08:32:52.808Z,-0.54
2022-12-11T08:35:19.423Z,-0.65
2022-12-11T08:37:46.017Z,-0.63
2022-12-11T08:40:12.700Z,-0.50
2022-12-11T08:42:39.317Z,-0.51
2022-12-11T08:45:06.682Z,-0.32
2022-12-11T08:47:33.261Z,-0.26
2022-12-11T08:49:59.853Z,-0.18
2022-12-11T08:52:26.459Z,-0.08
2022-12-11T08:54:53.080Z,0.02
2022-12-11T08:57:19.638Z,0.20
2022-12-11T08:59:46.261Z,0.49
2022-12-11T09:02:13.502Z,0.40
2022-12-11T09:04:40.340Z,0.57
2022-12-11T09:07:06.920Z,0.21
2022-12-11T09:09:33.544Z,0.38
2022-12-11T09:12:01.532Z,0.44
2022-12-11T09:14:28.164Z,0.41
2022-12-11T09:16:54.729Z,0.68
2022-12-11T09:19:21.333Z,0.82
2022-12-11T09:21:48.317Z,0.53
2022-12-11T09:24:15.201Z,0.81
2022-12-11T09:26:42.018Z,0.64
2022-12-11T09:29:09.202Z,0.84
2022-12-11T09:31:36.909Z,1.16
2022-12-11T09:34:11.461Z,1.33
2022-12-11T09:36:42.565Z,1.39
2022-12-11T09:39:11.601Z,1.44
2022-12-11T09:41:49.740Z,1.38
2022-12-11T09:44:31.479Z,1.69
2022-12-11T09:46:59.093Z,1.50
2022-12-11T09:49:37.702Z,1.38
2022-12-11T09:52:23.388Z,1.61
2022-12-11T09:54:56.517Z,1.53
2022-12-11T09:57:25.984Z,1.18
2022-12-11T10:00:14.129Z,1.24
2022-12-11T10:03:01.386Z,0.44
2022-12-11T10:05:45.325Z,0.95
2022-12-11T10:08:20.931Z,0.93
2022-12-11T10:11:16.312Z,0.87
2022-12-11T10:14:00.192Z,1.06
2022-12-11T10:16:46.157Z,0.86
2022-12-11T10:19:27.656Z,0.49
2022-12-11T10:21:55.733Z,0.44
2022-12-11T10:27:31.384Z,0.40
2022-12-11T10:30:08.358Z,0.49
2022-12-11T10:33:02.450Z,0.70
2022-12-11T10:35:32.105Z,0.85
2022-12-11T10:38:27.573Z,0.82
2022-12-11T10:41:00.868Z,0.88
2022-12-11T10:43:39.731Z,1.05
2022-12-11T10:46:14.125Z,0.97
2022-12-11T10:48:55.452Z,0.93
2022-12-11T10:51:34.277Z,1.10
2022-12-11T10:54:29.330Z,1.26
2022-12-11T10:56:56.746Z,1.69
2022-12-11T10:59:30.530Z,1.66
2022-12-11T11:01:58.101Z,1.67
2022-12-11T11:04:31.566Z,1.63
2022-12-11T11:07:11.123Z,1.48
2022-12-11T11:09:37.792Z,1.37
2022-12-11T11:12:08.081Z,1.30
2022-12-11T11:14:34.900Z,1.58
2022-12-11T11:17:01.624Z,1.55
2022-12-11T11:19:33.834Z,1.49
2022-12-11T11:22:19.698Z,1.67
2022-12-11T11:24:54.217Z,1.38
2022-12-11T11:27:41.344Z,1.36
2022-12-11T11:30:37.860Z,1.20
2022-12-11T11:33:12.547Z,0.95
2022-12-11T11:35:45.535Z,1.10
2022-12-11T11:38:21.996Z,1.35
2022-12-11T11:41:04.848Z,1.17
2022-12-11T11:43:38.714Z,1.18
2022-12-11T11:46:23.318Z,1.23
2022-12-11T11:49:07.902Z,1.53
2022-12-11T11:51:43.084Z,1.63
2022-12-11T11:54:17.095Z,1.77
2022-12-11T11:56:44.297Z,1.84
2022-12-11T11:59:22.723Z,1.61
2022-12-11T12:01:51.211Z,1.22
2022-12-11T12:04:17.871Z,1.24
2022-12-11T12:07:06.515Z,1.41
2022-12-11T12:10:00.674Z,1.02
2022-12-11T12:12:51.469Z,1.18
2022-12-11T12:15:28.881Z,1.21
2022-12-11T12:17:59.929Z,1.19
2022-12-11T12:20:38.865Z,1.35
2022-12-11T12:23:17.383Z,1.46
2022-12-11T12:26:00.381Z,1.08
2022-12-11T12:28:29.674Z,0.70
2022-12-11T12:31:17.423Z,0.66
2022-12-11T12:34:12.046Z,0.63
2022-12-11T12:36:57.412Z,0.75
2022-12-11T12:39:35.738Z,0.79
2022-12-11T12:42:16.125Z,0.84
2022-12-11T12:45:10.789Z,1.03
2022-12-11T12:47:38.983Z,1.02
2022-12-11T12:50:12.515Z,1.17
2022-12-11T12:52:40.794Z,1.17
2022-12-11T12:55:18.058Z,1.07
2022-12-11T12:57:54.617Z,1.33
2022-12-11T13:00:32.498Z,1.36
2022-12-11T13:03:03.359Z,1.39
2022-12-11T13:05:33.376Z,1.52
2022-12-11T13:08:03.411Z,1.64
2022-12-11T13:10:33.773Z,1.81
2022-12-11T13:13:02.436Z,1.85
2022-12-11T13:15:34.159Z,1.45
2022-12-11T13:18:03.948Z,1.05
2022-12-11T13:20:34.492Z,1.12
2022-12-11T13:23:07.140Z,0.97
2022-12-11T13:25:51.069Z,1.07
2022-12-11T13:28:28.842Z,1.43
2022-12-11T13:31:15.401Z,1.24
2022-12-11T13:33:47.058Z,1.07
2022-12-11T13:36:24.520Z,0.74
2022-12-11T13:39:04.841Z,0.32
2022-12-11T13:41:35.387Z,0.20
2022-12-11T13:44:03.100Z,0.29
2022-12-11T13:46:35.621Z,0.53
2022-12-11T13:49:06.922Z,0.56
2022-12-11T13:51:38.069Z,0.72
2022-12-11T13:54:17.966Z,0.48
2022-12-11T13:57:04.024Z,0.70
2022-12-11T13:59:32.235Z,0.79
2022-12-11T14:02:04.059Z,0.93
2022-12-11T14:04:34.316Z,1.04
2022-12-11T14:07:01.947Z,1.03
2022-12-11T14:09:29.543Z,0.98
2022-12-11T14:11:57.406Z,0.85
2022-12-11T14:14:33.340Z,0.79
2022-12-11T14:17:00.324Z,0.58
2022-12-11T14:19:27.784Z,0.57
2022-12-11T14:22:03.205Z,0.32
2022-12-11T14:24:31.230Z,0.28
2022-12-11T14:26:58.632Z,0.58
2022-12-11T14:29:33.003Z,0.50
2022-12-11T14:32:04.828Z,0.56
2022-12-11T14:34:36.969Z,0.57
2022-12-11T14:37:06.423Z,0.74
2022-12-11T14:39:52.757Z,0.56
2022-12-11T14:42:27.293Z,0.24
2022-12-11T14:45:03.145Z,0.35
2022-12-11T14:47:37.617Z,0.47
2022-12-11T14:50:17.389Z,0.12
2022-12-11T14:52:48.187Z,0.15
2022-12-11T14:55:21.653Z,0.30
2022-12-11T14:57:51.385Z,0.25
2022-12-11T15:00:22.299Z,0.34
2022-12-11T15:03:02.088Z,0.50
2022-12-11T15:05:30.026Z,0.98
2022-12-11T15:07:58.275Z,0.91
2022-12-11T15:10:31.377Z,0.83
2022-12-11T15:12:58.337Z,1.07
2022-12-11T15:15:33.876Z,1.09
2022-12-11T15:18:05.191Z,0.90
2022-12-11T15:20:31.871Z,0.49
2022-12-11T15:23:01.794Z,0.35
2022-12-11T15:25:29.794Z,0.30
2022-12-11T15:27:59.835Z,0.20
2022-12-11T15:30:33.190Z,0.16
2022-12-11T15:33:19.738Z,0.23
2022-12-11T15:36:04.444Z,0.15
2022-12-11T15:38:40.783Z,-0.57
2022-12-11T15:41:14.555Z,-0.37
2022-12-11T15:43:41.477Z,-0.38
2022-12-11T15:46:08.190Z,-0.66
2022-12-11T15:48:34.833Z,-0.72
2022-12-11T15:51:01.429Z,-0.48
2022-12-11T15:53:28.037Z,-0.67
2022-12-11T15:55:54.933Z,-0.84
2022-12-11T15:58:24.281Z,-1.16
2022-12-11T16:00:51.164Z,-1.08
2022-12-11T16:03:20.220Z,-1.38
2022-12-11T16:05:47.222Z,-1.28
2022-12-11T16:08:16.231Z,-1.14
2022-12-11T16:10:43.752Z,-1.14
2022-12-11T16:13:11.453Z,-1.27
2022-12-11T16:15:41.004Z,-1.27
2022-12-11T16:18:11.080Z,-1.37
2022-12-11T16:20:39.977Z,-1.38
2022-12-11T16:23:08.302Z,-1.44
2022-12-11T16:25:40.954Z,-1.53
2022-12-11T16:28:08.724Z,-1.42
2022-12-11T16:30:36.783Z,-1.11
2022-12-11T16:33:10.224Z,-1.28
2022-12-11T16:35:38.897Z,-1.09
2022-12-11T16:38:05.532Z,-0.90
2022-12-11T16:40:32.109Z,-0.79
2022-12-11T16:42:58.721Z,-0.89
2022-12-11T16:45:27.011Z,-1.33
2022-12-11T16:47:53.829Z,-1.14
2022-12-11T16:50:20.560Z,-1.01
2022-12-11T16:52:47.409Z,-0.92
2022-12-11T16:55:15.089Z,-1.36
2022-12-11T16:57:42.047Z,-0.93
2022-12-11T17:00:12.219Z,-1.02
2022-12-11T17:02:38.939Z,-0.80
2022-12-11T17:05:05.917Z,-0.68
2022-12-11T17:07:33.227Z,-0.55
2022-12-11T17:10:01.836Z,-0.35
2022-12-11T17:12:28.784Z,-0.29
2022-12-11T17:14:56.398Z,-0.15
2022-12-11T17:17:22.994Z,-0.05
2022-12-11T17:19:49.668Z,0.08
2022-12-11T17:22:16.419Z,0.16
2022-12-11T17:24:43.047Z,-0.87
2022-12-11T17:27:09.826Z,-1.87
2022-12-11T17:29:36.432Z,-1.42
2022-12-11T17:32:03.364Z,-1.04
2022-12-11T17:34:36.122Z,-0.86
2022-12-11T17:37:05.323Z,-0.60
2022-12-11T17:39:31.994Z,-0.57
2022-12-11T17:41:58.556Z,-0.50
2022-12-11T17:44:26.759Z,-0.44
2022-12-11T17:46:53.742Z,-0.47
2022-12-11T17:49:20.460Z,-0.37
2022-12-11T17:51:48.045Z,-0.30
2022-12-11T17:54:15.036Z,-0.86
2022-12-11T17:56:41.798Z,-0.74
2022-12-11T17:59:08.466Z,-0.76
2022-12-11T18:01:35.236Z,-0.57
2022-12-11T18:04:02.423Z,-0.42
2022-12-11T18:06:29.959Z,-0.59
2022-12-11T18:08:57.605Z,-0.43
2022-12-11T18:11:24.409Z,-0.54
2022-12-11T18:13:52.822Z,-0.65
2022-12-11T18:16:29.467Z,-0.74
2022-12-11T18:18:56.617Z,-0.84
2022-12-11T18:21:29.049Z,-0.76
2022-12-11T18:23:56.475Z,-1.10
2022-12-11T18:26:23.466Z,-1.46
2022-12-11T18:28:51.059Z,-1.87
2022-12-11T18:31:18.759Z,-1.83
2022-12-11T18:33:46.612Z,-1.69
2022-12-11T18:36:15.364Z,-1.68
2022-12-11T18:38:42.314Z,-1.87
2022-12-11T18:41:10.797Z,-2.08
2022-12-11T18:43:37.845Z,-1.88
2022-12-11T18:46:14.259Z,-1.79
2022-12-11T18:48:42.377Z,-1.72
2022-12-11T18:51:12.493Z,-1.91
2022-12-11T18:53:39.945Z,-1.81
2022-12-11T18:56:13.254Z,-1.75
2022-12-11T18:58:40.307Z,-1.98
2022-12-11T19:01:33.146Z,-1.91
2022-12-11T19:04:04.530Z,-1.85
2022-12-11T19:06:35.628Z,-1.60
2022-12-11T19:09:03.826Z,-1.48
2022-12-11T19:11:31.797Z,-1.51
2022-12-11T19:13:59.038Z,-1.49
2022-12-11T19:16:33.598Z,-1.48
2022-12-11T19:19:07.068Z,-1.27
2022-12-11T19:21:35.477Z,-1.17
2022-12-11T19:24:02.181Z,-0.88
2022-12-11T19:26:28.928Z,-0.84
2022-12-11T19:28:59.983Z,-0.75
2022-12-11T19:31:29.029Z,-0.62
2022-12-11T19:33:56.723Z,-0.57
2022-12-11T19:36:26.015Z,-0.72
2022-12-11T19:38:59.300Z,-0.64
2022-12-11T19:41:28.880Z,-0.64
2022-12-11T19:43:57.473Z,-0.59
2022-12-11T19:46:25.005Z,-0.69
2022-12-11T19:48:54.189Z,-0.59
2022-12-11T19:51:23.913Z,-0.62
2022-12-11T19:53:51.350Z,-0.76
2022-12-11T19:56:18.819Z,-0.69
2022-12-11T19:58:45.664Z,-0.98
2022-12-11T20:01:25.845Z,-1.01
2022-12-11T20:03:53.572Z,-0.98
2022-12-11T20:06:20.260Z,-0.75
2022-12-11T20:08:47.333Z,-0.84
2022-12-11T20:11:18.354Z,-0.40
2022-12-11T20:13:47.014Z,-0.19
2022-12-11T20:16:14.373Z,-0.14
2022-12-11T20:18:41.737Z,-0.08
2022-12-11T20:21:14.375Z,0.04
2022-12-11T20:23:41.424Z,0.18
2022-12-11T20:26:19.865Z,0.21
2022-12-11T20:28:50.197Z,0.16
2022-12-11T20:31:20.818Z,0.33
2022-12-11T20:33:49.255Z,0.29
2022-12-11T20:36:18.318Z,0.40
2022-12-11T20:38:45.265Z,0.44
2022-12-11T20:41:15.010Z,0.23
2022-12-11T20:43:42.293Z,0.32
2022-12-11T20:46:11.834Z,0.39
2022-12-11T20:48:39.901Z,0.48
2022-12-11T20:51:08.247Z,0.53
2022-12-11T20:53:36.082Z,0.48
2022-12-11T20:56:08.355Z,0.42
2022-12-11T20:58:34.910Z,0.21
2022-12-11T21:01:01.906Z,0.41
2022-12-11T21:03:28.580Z,0.33
2022-12-11T21:05:55.282Z,0.36
2022-12-11T21:08:21.938Z,0.37
2022-12-11T21:10:48.666Z,0.49
2022-12-11T21:13:16.742Z,0.47
2022-12-11T21:15:43.513Z,0.53
2022-12-11T21:18:10.194Z,0.61
2022-12-11T21:20:36.747Z,0.20
2022-12-11T21:23:03.936Z,0.38
2022-12-11T21:25:30.573Z,0.47
2022-12-11T21:27:57.149Z,0.44
2022-12-11T21:30:23.761Z,0.32
2022-12-11T21:32:50.351Z,-0.48
2022-12-11T21:35:17.062Z,-0.65
2022-12-11T21:37:43.733Z,-0.38
2022-12-11T21:40:10.721Z,-0.24
2022-12-11T21:42:37.297Z,-0.46
2022-12-11T21:47:50.973Z,-0.64
2022-12-11T21:50:18.133Z,-0.50
2022-12-11T21:52:44.743Z,-0.29
2022-12-11T21:55:12.785Z,-0.27
2022-12-11T21:57:39.656Z,-0.30
2022-12-11T22:00:06.785Z,-0.35
2022-12-11T22:02:37.553Z,-0.45
2022-12-11T22:05:07.692Z,-0.47
2022-12-11T22:07:34.287Z,-0.52
2022-12-11T22:10:02.204Z,-1.05
2022-12-11T22:12:29.577Z,-1.31
2022-12-11T22:14:56.437Z,-1.25
2022-12-11T22:17:23.217Z,-1.35
2022-12-11T22:19:52.035Z,-1.34
2022-12-11T22:22:19.322Z,-1.44
2022-12-11T22:24:46.095Z,-1.77
2022-12-11T22:27:12.693Z,-2.15
2022-12-11T22:29:39.314Z,-2.03
2022-12-11T22:32:05.913Z,-1.99
2022-12-11T22:34:32.500Z,-2.18
2022-12-11T22:36:59.064Z,-2.58
2022-12-11T22:39:25.684Z,-2.33
2022-12-11T22:41:52.326Z,-2.19
2022-12-11T22:44:21.390Z,-2.50
2022-12-11T22:46:50.436Z,-2.62
2022-12-11T22:49:18.772Z,-2.69
2022-12-11T22:51:45.470Z,-2.92
2022-12-11T22:54:12.254Z,-2.79
2022-12-11T22:56:38.988Z,-2.58
2022-12-11T22:59:07.524Z,-2.33
2022-12-11T23:01:34.463Z,-1.73
2022-12-11T23:04:01.066Z,-1.31
2022-12-11T23:06:27.691Z,-1.10
2022-12-11T23:08:58.730Z,-0.92
2022-12-11T23:11:29.418Z,-1.13
2022-12-11T23:13:56.703Z,-0.89
2022-12-11T23:16:25.845Z,-0.64
2022-12-11T23:18:53.697Z,-0.55
2022-12-11T23:21:21.782Z,-0.53
2022-12-11T23:23:48.850Z,-0.44
2022-12-11T23:26:15.990Z,-0.32
2022-12-11T23:28:42.565Z,-0.62
2022-12-11T23:31:09.322Z,-1.07
2022-12-11T23:33:36.792Z,-1.77
2022-12-11T23:36:04.498Z,-2.17
2022-12-11T23:38:31.129Z,-2.23
2022-12-11T23:41:00.246Z,-2.35
2022-12-11T23:43:26.949Z,-2.29
2022-12-11T23:45:54.136Z,-2.25
2022-12-11T23:48:21.225Z,-2.35
2022-12-11T23:50:48.209Z,-2.43
2022-12-11T23:53:15.279Z,-2.39
2022-12-11T23:55:44.838Z,-2.54
2022-12-11T23:58:11.987Z,-2.56
